createdAt,value
2023-04-11T00:05:50.422Z,0
2023-04-11T00:11:50.397Z,0
2023-04-11T00:17:50.429Z,0
2023-04-11T00:23:50.375Z,0
2023-04-11T00:30:00.734Z,0
2023-04-11T00:35:50.532Z,0
2023-04-11T00:41:50.369Z,0
2023-04-11T00:47:50.423Z,0
2023-04-11T00:53:50.417Z,0
2023-04-11T00:59:50.420Z,0
2023-04-11T01:05:50.440Z,0
2023-04-11T01:11:50.366Z,0
2023-04-11T01:17:50.399Z,0
2023-04-11T01:23:50.464Z,0
2023-04-11T01:29:50.382Z,0
2023-04-11T01:35:50.427Z,0
2023-04-11T01:41:50.370Z,0
2023-04-11T01:47:50.998Z,0
2023-04-11T01:53:50.405Z,0
2023-04-11T01:59:50.375Z,0
2023-04-11T02:05:50.363Z,0
2023-04-11T02:11:50.358Z,0
2023-04-11T02:17:50.422Z,0
2023-04-11T02:23:50.371Z,0
2023-04-11T02:29:50.390Z,0
2023-04-11T02:35:50.424Z,0
2023-04-11T02:41:50.386Z,0
2023-04-11T02:47:50.417Z,0
2023-04-11T02:53:50.408Z,0
2023-04-11T02:59:50.373Z,0
2023-04-11T03:05:50.371Z,0
2023-04-11T03:11:50.366Z,0
2023-04-11T03:17:50.516Z,0
2023-04-11T03:23:50.361Z,0
2023-04-11T03:29:50.359Z,0
2023-04-11T03:35:50.433Z,0
2023-04-11T03:41:50.358Z,0
2023-04-11T03:47:50.393Z,0
2023-04-11T03:53:50.367Z,0
2023-04-11T03:59:50.368Z,0
2023-04-11T04:06:00.662Z,0
2023-04-11T04:11:50.369Z,0
2023-04-11T04:17:50.396Z,0
2023-04-11T04:23:50.374Z,0
2023-04-11T04:29:53.228Z,0
2023-04-11T04:35:50.401Z,0
2023-04-11T04:41:50.373Z,0
2023-04-11T04:47:50.375Z,0
2023-04-11T04:53:50.358Z,0
2023-04-11T04:59:50.364Z,0
2023-04-11T05:05:50.360Z,0
2023-04-11T05:11:50.383Z,0
2023-04-11T05:17:50.373Z,0
2023-04-11T05:23:50.381Z,0
2023-04-11T05:29:50.382Z,0
2023-04-11T05:35:50.381Z,0
2023-04-11T05:41:50.372Z,0
2023-04-11T05:47:50.380Z,0
2023-04-11T05:53:50.362Z,0
2023-04-11T05:59:50.370Z,0
2023-04-11T06:05:50.387Z,0
2023-04-11T06:11:50.370Z,0
2023-04-11T06:17:50.387Z,0
2023-04-11T06:23:50.866Z,0
2023-04-11T06:29:50.349Z,0
2023-04-11T06:35:50.418Z,0
2023-04-11T06:41:50.376Z,0
2023-04-11T06:47:50.414Z,0
2023-04-11T06:53:50.371Z,0
2023-04-11T06:59:50.427Z,0
2023-04-11T07:05:50.434Z,0
2023-04-11T07:11:50.366Z,0
2023-04-11T07:17:52.692Z,0
2023-04-11T07:23:50.357Z,0
2023-04-11T07:29:50.362Z,0
2023-04-11T07:35:50.374Z,0
2023-04-11T07:41:50.357Z,1.8
2023-04-11T07:47:50.504Z,3.3
2023-04-11T07:53:50.359Z,1.9
2023-04-11T07:59:50.377Z,2.5
2023-04-11T08:05:50.345Z,4.2
2023-04-11T08:11:50.368Z,3.6
2023-04-11T08:17:50.373Z,4.5
2023-04-11T08:23:50.379Z,4.3
2023-04-11T08:29:50.385Z,4.9
2023-04-11T08:35:50.437Z,3.9
2023-04-11T08:41:50.366Z,4.5
2023-04-11T08:47:50.417Z,4.1
2023-04-11T08:53:50.369Z,4.1
2023-04-11T08:59:50.376Z,5.9
2023-04-11T09:05:50.385Z,6.1
2023-04-11T09:11:50.476Z,5.3
2023-04-11T09:17:50.378Z,6.7
2023-04-11T09:23:50.379Z,11.3
2023-04-11T09:29:50.385Z,9.9
2023-04-11T09:35:50.411Z,9.8
2023-04-11T09:41:50.411Z,10.9
2023-04-11T09:47:50.393Z,11.5
2023-04-11T09:53:50.386Z,13
2023-04-11T09:59:50.376Z,10.6
2023-04-11T10:05:50.375Z,10.2
2023-04-11T10:11:50.375Z,11.9
2023-04-11T10:17:50.449Z,12.3
2023-04-11T10:23:50.396Z,10.3
2023-04-11T10:29:51.769Z,11.4
2023-04-11T10:35:50.419Z,10.4
2023-04-11T10:41:50.382Z,12.1
2023-04-11T10:47:50.399Z,14.7
2023-04-11T10:53:50.373Z,14.4
2023-04-11T10:59:50.381Z,12.8
2023-04-11T11:05:50.381Z,12.5
2023-04-11T11:11:50.362Z,13.4
2023-04-11T11:17:50.438Z,14.6
2023-04-11T11:23:50.596Z,12.3
2023-04-11T11:29:50.373Z,11.2
2023-04-11T11:35:50.381Z,11.6
2023-04-11T11:41:50.381Z,11.9
2023-04-11T11:47:50.426Z,11.3
2023-04-11T11:53:50.384Z,11.3
2023-04-11T11:59:50.378Z,11.5
2023-04-11T12:05:50.378Z,12.4
2023-04-11T12:11:50.384Z,10.9
2023-04-11T12:17:50.399Z,11.3
2023-04-11T12:23:50.402Z,11.6
2023-04-11T12:29:50.369Z,11.5
2023-04-11T12:35:50.380Z,13.2
2023-04-11T12:41:50.397Z,11.9
2023-04-11T12:47:50.450Z,12
2023-04-11T12:53:50.377Z,12.3
2023-04-11T12:59:50.394Z,11.6
2023-04-11T13:05:50.387Z,11.8
2023-04-11T13:11:50.394Z,12
2023-04-11T13:17:50.410Z,12.1
2023-04-11T13:23:50.384Z,13
2023-04-11T13:29:50.399Z,12.5
2023-04-11T13:35:50.435Z,11.9
2023-04-11T13:41:50.411Z,11.7
2023-04-11T13:47:50.448Z,12.7
2023-04-11T13:53:50.495Z,12.6
2023-04-11T13:59:50.393Z,12.6
2023-04-11T14:05:50.398Z,12.5
2023-04-11T14:11:50.404Z,11.8
2023-04-11T14:17:50.436Z,12.2
2023-04-11T14:23:50.409Z,11.9
2023-04-11T14:29:50.394Z,11.7
2023-04-11T14:35:50.401Z,11.5
2023-04-11T14:41:50.426Z,11.1
2023-04-11T14:47:50.395Z,11.6
2023-04-11T14:53:50.409Z,11.4
2023-04-11T14:59:50.398Z,11.2
2023-04-11T15:05:50.396Z,11.8
2023-04-11T15:11:50.384Z,11.1
2023-04-11T15:17:50.466Z,10.4
2023-04-11T15:23:50.380Z,10.9
2023-04-11T15:29:50.398Z,10.6
2023-04-11T15:35:50.396Z,9.9
2023-04-11T15:41:50.395Z,10.8
2023-04-11T15:47:50.433Z,9.9
2023-04-11T15:53:50.398Z,9.4
2023-04-11T15:59:50.390Z,10.1
2023-04-11T16:05:50.386Z,10.2
2023-04-11T16:11:50.402Z,10
2023-04-11T16:17:50.424Z,10.6
2023-04-11T16:23:50.405Z,10.1
2023-04-11T16:30:00.689Z,9
2023-04-11T16:35:50.436Z,8.7
2023-04-11T16:41:50.436Z,7.7
2023-04-11T16:47:50.405Z,7.8
2023-04-11T16:53:50.393Z,7.9
2023-04-11T16:59:50.402Z,7.9
2023-04-11T17:05:50.414Z,7.2
2023-04-11T17:11:50.404Z,7.6
2023-04-11T17:17:50.465Z,7.8
2023-04-11T17:23:50.386Z,7.5
2023-04-11T17:29:50.389Z,7.8
2023-04-11T17:35:50.467Z,8
2023-04-11T17:41:50.411Z,8
2023-04-11T17:47:50.459Z,7.6
2023-04-11T17:54:00.758Z,7.3
2023-04-11T17:59:50.429Z,7.4
2023-04-11T18:05:50.395Z,7.4
2023-04-11T18:11:50.407Z,7.4
2023-04-11T18:17:50.398Z,7.3
2023-04-11T18:23:50.447Z,7
2023-04-11T18:29:50.410Z,6.7
2023-04-11T18:35:50.445Z,6.5
2023-04-11T18:42:00.693Z,6.3
2023-04-11T18:47:50.460Z,6.1
2023-04-11T18:53:50.394Z,6.3
2023-04-11T18:59:51.028Z,6.3
2023-04-11T19:05:50.679Z,6.3
2023-04-11T19:11:50.427Z,6
2023-04-11T19:17:50.590Z,6.1
2023-04-11T19:23:50.461Z,6
2023-04-11T19:29:50.397Z,6
2023-04-11T19:35:50.497Z,6
2023-04-11T19:41:50.395Z,5.4
2023-04-11T19:47:50.425Z,5.8
2023-04-11T19:53:50.421Z,5.9
2023-04-11T19:59:50.415Z,5.6
2023-04-11T20:05:50.408Z,5.8
2023-04-11T20:11:50.398Z,5.6
2023-04-11T20:17:50.428Z,6
2023-04-11T20:23:50.395Z,6
2023-04-11T20:29:50.419Z,5.9
2023-04-11T20:35:50.480Z,5.9
2023-04-11T20:41:50.403Z,5.7
2023-04-11T20:47:50.578Z,5.9
2023-04-11T20:53:50.563Z,5.7
2023-04-11T20:59:50.409Z,5.7
2023-04-11T21:05:50.405Z,5.7
2023-04-11T21:11:50.394Z,5.8
2023-04-11T21:17:50.617Z,5.7
2023-04-11T21:23:50.411Z,5.7
2023-04-11T21:29:50.383Z,5.7
2023-04-11T21:35:50.420Z,5.8
2023-04-11T21:41:50.405Z,5.9
2023-04-11T21:47:50.415Z,5.7
2023-04-11T21:53:50.407Z,5.5
2023-04-11T21:59:50.400Z,5.4
2023-04-11T22:05:50.544Z,5.4
2023-04-11T22:11:50.400Z,5.4
2023-04-11T22:17:50.820Z,5.2
2023-04-11T22:23:50.404Z,5.2
2023-04-11T22:29:50.402Z,4.9
2023-04-11T22:35:50.506Z,4.7
2023-04-11T22:41:50.431Z,4.3
2023-04-11T22:47:50.414Z,4.2
2023-04-11T22:53:50.404Z,4
2023-04-11T22:59:50.413Z,4
2023-04-11T23:05:50.410Z,3.8
2023-04-11T23:11:50.410Z,3.8
2023-04-11T23:17:50.399Z,3.7
2023-04-11T23:23:50.394Z,3.6
2023-04-11T23:29:50.410Z,2.9
2023-04-11T23:35:50.407Z,2.7
2023-04-11T23:41:50.395Z,2.1
2023-04-11T23:47:50.423Z,1.9
2023-04-11T23:53:50.405Z,1.3
2023-04-11T23:59:50.391Z,0.9
